createdAt,value
2023-08-08T00:01:46.929Z,100.00
2023-08-08T00:04:14.277Z,100.00
2023-08-08T00:06:41.837Z,100.00
2023-08-08T00:09:09.183Z,100.00
2023-08-08T00:11:36.800Z,100.00
2023-08-08T00:14:04.349Z,100.00
2023-08-08T00:16:31.668Z,100.00
2023-08-08T00:18:59.094Z,100.00
2023-08-08T00:21:26.504Z,100.00
2023-08-08T00:23:53.825Z,100.00
2023-08-08T00:26:21.235Z,100.00
2023-08-08T00:28:48.603Z,100.00
2023-08-08T00:31:18.907Z,100.00
2023-08-08T00:33:46.524Z,100.00
2023-08-08T00:36:13.913Z,100.00
2023-08-08T00:38:41.323Z,100.00
2023-08-08T00:41:08.743Z,100.00
2023-08-08T00:43:36.184Z,100.00
2023-08-08T00:46:03.841Z,100.00
2023-08-08T00:48:32.825Z,100.00
2023-08-08T00:51:00.767Z,100.00
2023-08-08T00:53:32.324Z,100.00
2023-08-08T00:56:01.639Z,100.00
2023-08-08T00:58:29.397Z,100.00
2023-08-08T01:01:01.027Z,100.00
2023-08-08T01:03:28.569Z,100.00
2023-08-08T01:06:07.059Z,100.00
2023-08-08T01:08:48.241Z,100.00
2023-08-08T01:11:18.029Z,100.00
2023-08-08T01:13:48.030Z,100.00
2023-08-08T01:16:18.713Z,100.00
2023-08-08T01:18:49.546Z,100.00
2023-08-08T01:21:17.917Z,100.00
2023-08-08T01:23:57.961Z,100.00
2023-08-08T01:26:25.832Z,100.00
2023-08-08T01:28:56.154Z,100.00
2023-08-08T01:31:24.433Z,100.00
2023-08-08T01:33:51.678Z,100.00
2023-08-08T01:36:30.127Z,100.00
2023-08-08T01:39:05.583Z,100.00
2023-08-08T01:41:40.804Z,100.00
2023-08-08T01:44:08.910Z,100.00
2023-08-08T01:46:37.729Z,100.00
2023-08-08T01:49:05.150Z,100.00
2023-08-08T01:51:32.511Z,100.00
2023-08-08T01:53:59.834Z,100.00
2023-08-08T01:56:27.127Z,100.00
2023-08-08T01:58:54.439Z,100.00
2023-08-08T02:01:22.645Z,100.00
2023-08-08T02:03:50.029Z,100.00
2023-08-08T02:06:17.403Z,100.00
2023-08-08T02:08:44.832Z,100.00
2023-08-08T02:11:12.698Z,100.00
2023-08-08T02:13:39.958Z,100.00
2023-08-08T02:16:07.473Z,100.00
2023-08-08T02:18:34.820Z,100.00
2023-08-08T02:21:02.782Z,100.00
2023-08-08T02:23:30.212Z,100.00
2023-08-08T02:25:57.492Z,100.00
2023-08-08T02:28:24.839Z,100.00
2023-08-08T02:30:52.503Z,100.00
2023-08-08T02:33:20.434Z,100.00
2023-08-08T02:35:47.828Z,100.00
2023-08-08T02:38:15.127Z,100.00
2023-08-08T02:40:42.763Z,100.00
2023-08-08T02:43:12.034Z,100.00
2023-08-08T02:45:39.916Z,100.00
2023-08-08T02:48:07.761Z,100.00
2023-08-08T02:50:35.268Z,100.00
2023-08-08T02:53:03.163Z,100.00
2023-08-08T02:55:38.312Z,100.00
2023-08-08T02:58:06.002Z,100.00
2023-08-08T03:00:33.946Z,100.00
2023-08-08T03:03:02.431Z,100.00
2023-08-08T03:05:29.990Z,100.00
2023-08-08T03:07:57.929Z,100.00
2023-08-08T03:10:27.007Z,100.00
2023-08-08T03:12:54.331Z,100.00
2023-08-08T03:15:22.757Z,100.00
2023-08-08T03:17:50.964Z,100.00
2023-08-08T03:20:19.028Z,100.00
2023-08-08T03:22:46.512Z,100.00
2023-08-08T03:25:13.935Z,100.00
2023-08-08T03:27:43.013Z,100.00
2023-08-08T03:30:12.856Z,100.00
2023-08-08T03:32:43.048Z,100.00
2023-08-08T03:35:10.821Z,100.00
2023-08-08T03:37:40.507Z,100.00
2023-08-08T03:40:11.859Z,100.00
2023-08-08T03:42:39.278Z,100.00
2023-08-08T03:45:07.336Z,100.00
2023-08-08T03:47:34.836Z,100.00
2023-08-08T03:50:02.310Z,100.00
2023-08-08T03:52:30.189Z,100.00
2023-08-08T03:54:58.685Z,100.00
2023-08-08T03:57:26.632Z,100.00
2023-08-08T03:59:54.045Z,100.00
2023-08-08T04:02:21.485Z,100.00
2023-08-08T04:04:48.855Z,100.00
2023-08-08T04:07:16.169Z,100.00
2023-08-08T04:09:43.442Z,100.00
2023-08-08T04:12:10.819Z,100.00
2023-08-08T04:14:38.248Z,100.00
2023-08-08T04:17:06.187Z,100.00
2023-08-08T04:19:33.618Z,100.00
2023-08-08T04:22:01.138Z,100.00
2023-08-08T04:24:29.105Z,100.00
2023-08-08T04:26:56.373Z,100.00
2023-08-08T04:29:23.953Z,100.00
2023-08-08T04:31:51.264Z,100.00
2023-08-08T04:34:18.724Z,100.00
2023-08-08T04:36:46.185Z,100.00
2023-08-08T04:39:13.389Z,100.00
2023-08-08T04:41:40.763Z,100.00
2023-08-08T04:44:08.203Z,100.00
2023-08-08T04:46:35.608Z,100.00
2023-08-08T04:49:02.905Z,100.00
2023-08-08T04:51:30.270Z,100.00
2023-08-08T04:53:57.615Z,100.00
2023-08-08T04:56:24.833Z,100.00
2023-08-08T04:58:52.100Z,100.00
2023-08-08T05:01:21.662Z,100.00
2023-08-08T05:03:49.682Z,100.00
2023-08-08T05:06:17.048Z,100.00
2023-08-08T05:08:44.396Z,100.00
2023-08-08T05:11:11.744Z,100.00
2023-08-08T05:13:39.045Z,100.00
2023-08-08T05:16:07.434Z,100.00
2023-08-08T05:18:34.820Z,100.00
2023-08-08T05:21:02.102Z,100.00
2023-08-08T05:23:29.525Z,100.00
2023-08-08T05:25:56.861Z,96.25
2023-08-08T05:28:24.150Z,92.34
2023-08-08T05:30:52.081Z,93.92
2023-08-08T05:33:19.503Z,94.16
2023-08-08T05:35:46.834Z,73.47
2023-08-08T05:38:14.197Z,68.51
2023-08-08T05:40:42.433Z,64.32
2023-08-08T05:43:10.156Z,64.18
2023-08-08T05:45:37.487Z,62.69
2023-08-08T05:48:05.215Z,61.76
2023-08-08T05:50:32.533Z,61.01
2023-08-08T05:52:59.860Z,57.99
2023-08-08T05:55:27.090Z,59.21
2023-08-08T05:57:55.501Z,58.92
2023-08-08T06:00:22.844Z,55.29
2023-08-08T06:02:50.485Z,53.35
2023-08-08T06:05:19.022Z,51.03
2023-08-08T06:07:46.389Z,53.28
2023-08-08T06:10:13.726Z,52.62
2023-08-08T06:12:41.180Z,50.58
2023-08-08T06:15:09.752Z,49.31
2023-08-08T06:17:37.140Z,48.10
2023-08-08T06:20:05.890Z,47.62
2023-08-08T06:22:33.428Z,47.08
2023-08-08T06:25:00.794Z,46.52
2023-08-08T06:27:28.285Z,45.86
2023-08-08T06:29:55.679Z,44.83
2023-08-08T06:32:23.262Z,44.29
2023-08-08T06:34:50.571Z,43.70
2023-08-08T06:37:17.866Z,43.98
2023-08-08T06:39:45.167Z,41.81
2023-08-08T06:42:12.434Z,43.00
2023-08-08T06:44:52.150Z,42.72
2023-08-08T06:47:19.580Z,40.62
2023-08-08T06:49:47.223Z,41.53
2023-08-08T06:52:14.550Z,39.98
2023-08-08T06:54:41.846Z,39.11
2023-08-08T06:57:09.307Z,37.37
2023-08-08T06:59:36.703Z,39.46
2023-08-08T07:02:04.668Z,40.80
2023-08-08T07:04:32.340Z,42.92
2023-08-08T07:06:59.653Z,40.68
2023-08-08T07:09:27.098Z,40.52
2023-08-08T07:11:54.368Z,39.49
2023-08-08T07:14:21.729Z,39.64
2023-08-08T07:16:49.769Z,41.83
2023-08-08T07:19:17.229Z,41.54
2023-08-08T07:21:44.604Z,40.40
2023-08-08T07:24:11.932Z,39.84
2023-08-08T07:26:39.491Z,36.43
2023-08-08T07:29:07.229Z,36.34
2023-08-08T07:31:35.063Z,35.96
2023-08-08T07:34:02.425Z,33.94
2023-08-08T07:36:29.830Z,34.30
2023-08-08T07:39:00.805Z,35.58
2023-08-08T07:41:31.993Z,39.91
2023-08-08T07:43:59.338Z,45.24
2023-08-08T07:46:26.664Z,47.10
2023-08-08T07:48:54.208Z,51.62
2023-08-08T07:51:21.701Z,55.81
2023-08-08T07:53:48.965Z,56.89
2023-08-08T07:56:16.331Z,63.74
2023-08-08T07:58:43.812Z,64.02
2023-08-08T08:01:11.209Z,65.23
2023-08-08T08:03:38.741Z,63.46
2023-08-08T08:06:06.351Z,65.53
2023-08-08T08:08:33.877Z,69.12
2023-08-08T08:11:04.943Z,68.63
2023-08-08T08:13:32.407Z,71.74
2023-08-08T08:15:59.889Z,71.09
2023-08-08T08:18:27.297Z,73.28
2023-08-08T08:20:54.616Z,71.82
2023-08-08T08:23:21.923Z,74.69
2023-08-08T08:25:49.920Z,71.99
2023-08-08T08:28:17.836Z,72.14
2023-08-08T08:30:45.313Z,68.63
2023-08-08T08:33:12.808Z,64.70
2023-08-08T08:35:40.326Z,60.75
2023-08-08T08:38:08.245Z,54.30
2023-08-08T08:40:40.784Z,45.79
2023-08-08T08:43:10.685Z,41.49
2023-08-08T08:45:44.338Z,46.77
2023-08-08T08:48:13.299Z,48.82
2023-08-08T08:50:41.169Z,52.66
2023-08-08T08:53:09.261Z,52.84
2023-08-08T08:55:36.648Z,48.22
2023-08-08T08:58:05.519Z,46.21
2023-08-08T09:00:34.112Z,45.54
2023-08-08T09:03:01.841Z,42.76
2023-08-08T09:05:29.618Z,39.23
2023-08-08T09:07:56.946Z,38.70
2023-08-08T09:10:26.212Z,36.65
2023-08-08T09:12:53.522Z,32.91
2023-08-08T09:15:20.832Z,33.28
2023-08-08T09:17:49.561Z,36.26
2023-08-08T09:20:19.184Z,43.30
2023-08-08T09:22:46.556Z,43.11
2023-08-08T09:25:13.931Z,43.59
2023-08-08T09:27:44.435Z,42.24
2023-08-08T09:30:13.018Z,37.03
2023-08-08T09:32:40.758Z,35.10
2023-08-08T09:35:11.961Z,37.63
2023-08-08T09:37:40.096Z,43.70
2023-08-08T09:40:09.343Z,47.37
2023-08-08T09:42:37.505Z,54.17
2023-08-08T09:45:05.907Z,54.43
2023-08-08T09:47:33.480Z,54.21
2023-08-08T09:50:03.059Z,54.16
2023-08-08T09:52:31.836Z,57.87
2023-08-08T09:54:59.869Z,56.39
2023-08-08T09:57:27.827Z,55.48
2023-08-08T09:59:56.436Z,52.95
2023-08-08T10:02:23.986Z,53.86
2023-08-08T10:04:52.127Z,57.61
2023-08-08T10:07:19.633Z,55.62
2023-08-08T10:09:47.394Z,54.44
2023-08-08T10:12:14.832Z,56.81
2023-08-08T10:14:44.389Z,57.21
2023-08-08T10:17:16.677Z,55.77
2023-08-08T10:19:56.293Z,50.02
2023-08-08T10:22:26.074Z,42.23
2023-08-08T10:24:57.460Z,44.99
2023-08-08T10:27:39.430Z,51.02
2023-08-08T10:30:11.993Z,51.01
2023-08-08T10:32:44.851Z,52.46
2023-08-08T10:35:13.834Z,55.70
2023-08-08T10:37:42.379Z,55.96
2023-08-08T10:40:12.618Z,58.34
2023-08-08T10:42:44.722Z,57.18
2023-08-08T10:45:15.580Z,60.93
2023-08-08T10:47:44.446Z,58.21
2023-08-08T10:50:13.820Z,61.63
2023-08-08T10:52:53.446Z,59.93
2023-08-08T10:55:28.865Z,63.15
2023-08-08T10:58:20.732Z,58.42
2023-08-08T11:00:49.383Z,53.86
2023-08-08T11:03:17.106Z,48.54
2023-08-08T11:05:48.465Z,49.77
2023-08-08T11:08:17.101Z,51.37
2023-08-08T11:10:44.415Z,55.15
2023-08-08T11:13:11.770Z,58.61
2023-08-08T11:15:40.086Z,59.38
2023-08-08T11:18:09.608Z,56.01
2023-08-08T11:20:38.349Z,52.18
2023-08-08T11:23:07.272Z,55.68
2023-08-08T11:25:34.828Z,50.87
2023-08-08T11:28:02.195Z,52.59
2023-08-08T11:30:33.689Z,47.95
2023-08-08T11:35:32.284Z,48.15
2023-08-08T11:38:01.341Z,48.08
2023-08-08T11:40:30.737Z,53.06
2023-08-08T11:43:00.171Z,51.39
2023-08-08T11:45:27.792Z,54.00
2023-08-08T11:47:57.570Z,56.75
2023-08-08T11:50:28.563Z,54.30
2023-08-08T11:52:56.937Z,57.64
2023-08-08T11:55:31.684Z,56.60
2023-08-08T11:58:01.075Z,61.13
2023-08-08T12:00:32.034Z,60.17
2023-08-08T12:03:02.353Z,62.90
2023-08-08T12:05:31.364Z,64.88
2023-08-08T12:08:00.387Z,67.76
2023-08-08T12:10:27.826Z,65.52
2023-08-08T12:13:01.377Z,66.64
2023-08-08T12:15:37.102Z,63.10
2023-08-08T12:18:05.773Z,63.90
2023-08-08T12:20:33.469Z,67.62
2023-08-08T12:23:01.394Z,67.57
2023-08-08T12:25:29.085Z,63.57
2023-08-08T12:27:56.594Z,67.83
2023-08-08T12:30:24.015Z,62.71
2023-08-08T12:32:51.397Z,62.67
2023-08-08T12:35:18.756Z,54.24
2023-08-08T12:37:46.056Z,56.00
2023-08-08T12:40:14.282Z,56.16
2023-08-08T12:42:41.761Z,56.00
2023-08-08T12:45:09.341Z,60.61
2023-08-08T12:47:38.824Z,55.89
2023-08-08T12:50:08.968Z,55.28
2023-08-08T12:52:36.996Z,55.70
2023-08-08T12:55:05.001Z,54.73
2023-08-08T12:57:33.046Z,58.16
2023-08-08T13:00:00.435Z,56.18
2023-08-08T13:02:27.936Z,53.69
2023-08-08T13:04:55.255Z,56.63
2023-08-08T13:07:22.472Z,58.17
2023-08-08T13:09:51.274Z,53.47
2023-08-08T13:12:18.681Z,57.08
2023-08-08T13:14:46.024Z,54.90
2023-08-08T13:17:13.457Z,59.26
2023-08-08T13:19:42.001Z,56.93
2023-08-08T13:22:09.374Z,60.46
2023-08-08T13:24:36.825Z,56.36
2023-08-08T13:27:04.227Z,62.43
2023-08-08T13:29:31.747Z,59.07
2023-08-08T13:31:59.546Z,65.32
2023-08-08T13:34:27.051Z,69.71
2023-08-08T13:36:54.359Z,75.10
2023-08-08T13:39:21.612Z,88.43
2023-08-08T13:41:49.339Z,100.00
2023-08-08T13:44:16.618Z,100.00
2023-08-08T13:46:44.138Z,100.00
2023-08-08T13:49:11.649Z,100.00
2023-08-08T13:51:39.010Z,100.00
2023-08-08T13:54:06.324Z,100.00
2023-08-08T13:56:33.664Z,100.00
2023-08-08T13:59:00.971Z,100.00
2023-08-08T14:01:28.314Z,91.38
2023-08-08T14:03:55.587Z,98.36
2023-08-08T14:06:22.918Z,100.00
2023-08-08T14:08:50.301Z,96.73
2023-08-08T14:11:17.780Z,98.38
2023-08-08T14:13:45.308Z,96.96
2023-08-08T14:16:12.781Z,100.00
2023-08-08T14:18:40.191Z,100.00
2023-08-08T14:21:07.664Z,100.00
2023-08-08T14:23:35.023Z,99.17
2023-08-08T14:26:02.261Z,83.46
2023-08-08T14:28:29.588Z,80.99
2023-08-08T14:30:56.912Z,95.02
2023-08-08T14:33:24.539Z,91.14
2023-08-08T14:35:51.839Z,93.09
2023-08-08T14:38:19.114Z,91.68
2023-08-08T14:40:46.630Z,89.38
2023-08-08T14:43:13.892Z,84.01
2023-08-08T14:45:41.499Z,85.68
2023-08-08T14:48:09.032Z,87.41
2023-08-08T14:50:36.622Z,87.95
2023-08-08T14:53:04.226Z,87.68
2023-08-08T14:55:31.744Z,84.18
2023-08-08T14:57:59.134Z,88.72
2023-08-08T15:00:26.364Z,84.73
2023-08-08T15:02:53.753Z,76.47
2023-08-08T15:05:21.261Z,83.83
2023-08-08T15:07:48.519Z,79.29
2023-08-08T15:10:16.315Z,74.91
2023-08-08T15:12:43.624Z,76.60
2023-08-08T15:15:11.554Z,79.37
2023-08-08T15:17:38.806Z,73.40
2023-08-08T15:20:07.393Z,74.04
2023-08-08T15:22:34.669Z,75.84
2023-08-08T15:25:02.460Z,75.76
2023-08-08T15:27:29.720Z,72.61
2023-08-08T15:29:57.286Z,69.27
2023-08-08T15:32:24.791Z,75.50
2023-08-08T15:34:52.172Z,77.46
2023-08-08T15:37:19.575Z,78.80
2023-08-08T15:39:46.784Z,78.00
2023-08-08T15:42:14.077Z,74.90
2023-08-08T15:44:41.323Z,72.59
2023-08-08T15:47:09.769Z,73.73
2023-08-08T15:49:37.106Z,70.59
2023-08-08T15:52:04.928Z,72.57
2023-08-08T15:54:32.130Z,70.94
2023-08-08T15:57:02.115Z,68.49
2023-08-08T15:59:31.501Z,70.16
2023-08-08T16:01:58.916Z,71.09
2023-08-08T16:04:26.248Z,72.75
2023-08-08T16:06:53.601Z,74.62
2023-08-08T16:09:20.885Z,72.56
2023-08-08T16:11:48.153Z,73.15
2023-08-08T16:14:16.151Z,83.76
2023-08-08T16:16:43.850Z,74.77
2023-08-08T16:19:12.658Z,74.23
2023-08-08T16:21:39.908Z,73.03
2023-08-08T16:24:07.682Z,73.10
2023-08-08T16:26:35.044Z,72.77
2023-08-08T16:29:02.640Z,71.61
2023-08-08T16:31:30.095Z,78.44
2023-08-08T16:33:57.452Z,73.93
2023-08-08T16:36:24.790Z,78.07
2023-08-08T16:38:55.215Z,77.48
2023-08-08T16:41:24.645Z,76.77
2023-08-08T16:44:10.006Z,88.09
2023-08-08T16:46:37.729Z,79.51
2023-08-08T16:49:05.127Z,75.59
2023-08-08T16:51:32.632Z,75.24
2023-08-08T16:54:00.647Z,74.19
2023-08-08T16:56:28.961Z,73.50
2023-08-08T16:58:56.358Z,81.86
2023-08-08T17:01:23.872Z,76.05
2023-08-08T17:03:51.232Z,82.88
2023-08-08T17:06:19.059Z,84.22
2023-08-08T17:08:46.656Z,84.37
2023-08-08T17:11:14.435Z,81.00
2023-08-08T17:13:41.800Z,78.88
2023-08-08T17:16:09.302Z,81.45
2023-08-08T17:18:37.952Z,87.52
2023-08-08T17:21:05.212Z,80.44
2023-08-08T17:23:32.649Z,82.38
2023-08-08T17:25:59.967Z,86.86
2023-08-08T17:28:27.337Z,87.45
2023-08-08T17:30:55.817Z,91.86
2023-08-08T17:33:23.175Z,97.58
2023-08-08T17:35:50.587Z,97.17
2023-08-08T17:38:17.955Z,100.00
2023-08-08T17:40:46.426Z,94.09
2023-08-08T17:43:13.815Z,100.00
2023-08-08T17:45:41.155Z,100.00
2023-08-08T17:48:08.589Z,100.00
2023-08-08T17:50:35.983Z,93.87
2023-08-08T17:53:03.452Z,93.28
2023-08-08T17:55:30.944Z,92.44
2023-08-08T17:57:58.187Z,90.91
2023-08-08T18:00:25.652Z,93.67
2023-08-08T18:02:52.974Z,95.35
2023-08-08T18:05:20.488Z,93.09
2023-08-08T18:07:47.838Z,100.00
2023-08-08T18:10:15.553Z,97.19
2023-08-08T18:12:44.159Z,91.18
2023-08-08T18:15:11.946Z,98.45
2023-08-08T18:17:39.369Z,97.05
2023-08-08T18:20:10.379Z,100.00
2023-08-08T18:22:37.812Z,100.00
2023-08-08T18:25:05.735Z,100.00
2023-08-08T18:27:33.451Z,100.00
2023-08-08T18:30:00.816Z,100.00
2023-08-08T18:32:28.280Z,91.55
2023-08-08T18:34:55.673Z,93.93
2023-08-08T18:37:23.117Z,93.05
2023-08-08T18:39:51.007Z,96.17
2023-08-08T18:42:18.397Z,91.50
2023-08-08T18:44:45.845Z,92.87
2023-08-08T18:47:13.062Z,91.78
2023-08-08T18:49:40.378Z,93.67
2023-08-08T18:52:07.878Z,91.67
2023-08-08T18:54:35.387Z,96.46
2023-08-08T18:57:02.692Z,96.16
2023-08-08T18:59:30.126Z,91.75
2023-08-08T19:01:57.614Z,92.99
2023-08-08T19:04:25.025Z,95.75
2023-08-08T19:06:52.623Z,97.44
2023-08-08T19:09:20.062Z,88.80
2023-08-08T19:11:47.594Z,91.49
2023-08-08T19:14:14.982Z,89.53
2023-08-08T19:16:42.693Z,87.41
2023-08-08T19:19:10.109Z,82.78
2023-08-08T19:21:37.811Z,87.33
2023-08-08T19:24:05.452Z,82.17
2023-08-08T19:26:34.638Z,82.04
2023-08-08T19:29:02.136Z,79.74
2023-08-08T19:31:29.526Z,80.04
2023-08-08T19:34:06.545Z,87.99
2023-08-08T19:36:36.693Z,89.06
2023-08-08T19:39:04.751Z,89.45
2023-08-08T19:41:32.125Z,85.04
2023-08-08T19:43:59.647Z,85.31
2023-08-08T19:46:27.107Z,82.65
2023-08-08T19:48:54.521Z,80.97
2023-08-08T19:51:21.796Z,79.17
2023-08-08T19:53:49.856Z,83.44
2023-08-08T19:56:17.226Z,79.76
2023-08-08T19:58:44.581Z,78.98
2023-08-08T20:01:12.195Z,83.84
2023-08-08T20:03:42.148Z,84.42
2023-08-08T20:06:09.940Z,82.88
2023-08-08T20:08:37.186Z,82.89
2023-08-08T20:11:06.881Z,84.75
2023-08-08T20:13:35.007Z,88.75
2023-08-08T20:16:02.834Z,89.85
2023-08-08T20:18:30.894Z,94.85
2023-08-08T20:20:58.722Z,90.26
2023-08-08T20:23:26.314Z,92.88
2023-08-08T20:25:53.848Z,98.06
2023-08-08T20:28:21.431Z,92.44
2023-08-08T20:30:48.756Z,94.01
2023-08-08T20:33:16.149Z,93.82
2023-08-08T20:35:43.605Z,94.72
2023-08-08T20:38:11.493Z,100.00
2023-08-08T20:40:38.870Z,95.35
2023-08-08T20:43:06.306Z,96.28
2023-08-08T20:45:33.899Z,88.47
2023-08-08T20:48:02.323Z,87.61
2023-08-08T20:50:29.731Z,88.23
2023-08-08T20:52:57.224Z,87.36
2023-08-08T20:55:24.586Z,88.07
2023-08-08T20:57:51.963Z,88.75
2023-08-08T21:00:20.359Z,86.73
2023-08-08T21:04:02.645Z,87.63
2023-08-08T21:06:44.874Z,89.89
2023-08-08T21:09:12.454Z,82.81
2023-08-08T21:11:39.798Z,86.29
2023-08-08T21:14:07.269Z,88.99
2023-08-08T21:16:34.778Z,83.01
2023-08-08T21:19:02.334Z,87.57
2023-08-08T21:21:29.851Z,85.88
2023-08-08T21:23:57.516Z,96.17
2023-08-08T21:26:34.089Z,90.35
2023-08-08T21:29:06.500Z,86.13
2023-08-08T21:31:34.166Z,93.52
2023-08-08T21:34:01.787Z,91.17
2023-08-08T21:36:29.182Z,89.28
2023-08-08T21:38:58.503Z,86.65
2023-08-08T21:41:27.749Z,87.28
2023-08-08T21:43:55.945Z,90.45
2023-08-08T21:46:23.434Z,93.56
2023-08-08T21:48:51.008Z,100.00
2023-08-08T21:51:18.379Z,99.96
2023-08-08T21:53:45.784Z,100.00
2023-08-08T21:56:13.156Z,100.00
2023-08-08T21:58:40.680Z,100.00
2023-08-08T22:01:08.204Z,100.00
2023-08-08T22:03:35.706Z,100.00
2023-08-08T22:06:03.141Z,100.00
2023-08-08T22:08:30.708Z,100.00
2023-08-08T22:10:57.993Z,100.00
2023-08-08T22:13:25.545Z,100.00
2023-08-08T22:15:53.972Z,100.00
2023-08-08T22:18:22.008Z,100.00
2023-08-08T22:20:49.458Z,100.00
2023-08-08T22:23:21.032Z,100.00
2023-08-08T22:25:50.990Z,100.00
2023-08-08T22:28:19.741Z,100.00
2023-08-08T22:30:52.513Z,95.99
2023-08-08T22:33:20.856Z,100.00
2023-08-08T22:35:48.210Z,93.23
2023-08-08T22:38:15.681Z,99.03
2023-08-08T22:40:44.499Z,95.90
2023-08-08T22:43:13.008Z,97.40
2023-08-08T22:45:40.371Z,98.68
2023-08-08T22:48:07.959Z,100.00
2023-08-08T22:50:35.340Z,100.00
2023-08-08T22:53:04.288Z,100.00
2023-08-08T22:55:31.655Z,100.00
2023-08-08T22:57:59.048Z,100.00
2023-08-08T23:00:27.074Z,100.00
2023-08-08T23:02:54.409Z,100.00
2023-08-08T23:05:25.053Z,100.00
2023-08-08T23:07:52.387Z,97.43
2023-08-08T23:10:19.896Z,100.00
2023-08-08T23:12:47.396Z,100.00
2023-08-08T23:15:14.819Z,100.00
2023-08-08T23:17:42.124Z,100.00
2023-08-08T23:20:10.028Z,100.00
2023-08-08T23:22:38.546Z,100.00
2023-08-08T23:25:10.608Z,100.00
2023-08-08T23:27:38.046Z,100.00
2023-08-08T23:30:10.258Z,100.00
2023-08-08T23:32:40.562Z,100.00
2023-08-08T23:35:09.789Z,100.00
2023-08-08T23:37:37.564Z,100.00
2023-08-08T23:40:09.389Z,100.00
2023-08-08T23:42:37.473Z,100.00
2023-08-08T23:45:08.386Z,100.00
2023-08-08T23:47:35.679Z,100.00
2023-08-08T23:50:05.058Z,100.00
2023-08-08T23:52:32.293Z,100.00
2023-08-08T23:54:59.564Z,100.00
2023-08-08T23:57:26.788Z,100.00
2023-08-08T23:59:54.102Z,100.00
